Time;durP1;ratioP1;P1;durP2;ratioP2;P2;SDS_P1;SDS_P2;PMS_P1;PMS_P2;Temp;Humidity;BMP_temperature;BMP_pressure;BME280_temperature;BME280_humidity;BME280_pressure;Samples;Min_cycle;Max_cycle;Signal;HPM_P1;HPM_P2
2023/01/07 00:01:07;;;;;;;3.00;1.02;;;12.30;99.90;;;;;;6219237;23;20015;-80
2023/01/07 00:03:36;;;;;;;2.05;1.10;;;12.30;99.90;;;;;;6218715;23;20001;-80
2023/01/07 00:06:13;;;;;;;2.60;1.00;;;12.30;99.90;;;;;;6219083;23;20005;-80
2023/01/07 00:08:48;;;;;;;2.45;0.82;;;12.20;99.90;;;;;;6219455;23;20366;-80
2023/01/07 00:11:22;;;;;;;2.85;1.00;;;12.20;99.90;;;;;;6218887;23;20004;-80
2023/01/07 00:13:48;;;;;;;2.95;1.10;;;12.20;99.90;;;;;;6218144;23;20449;-80
2023/01/07 00:16:17;;;;;;;1.80;1.00;;;12.20;99.90;;;;;;6220624;23;20005;-80
2023/01/07 00:18:47;;;;;;;2.08;1.20;;;12.20;99.90;;;;;;6218268;23;20040;-80
2023/01/07 00:21:14;;;;;;;1.55;0.73;;;12.30;99.90;;;;;;6220175;23;20000;-80
2023/01/07 00:23:41;;;;;;;4.20;1.10;;;12.30;99.90;;;;;;6218764;23;20005;-80
2023/01/07 00:26:16;;;;;;;3.30;1.20;;;12.30;99.90;;;;;;6219148;23;20015;-80
2023/01/07 00:28:44;;;;;;;1.95;0.90;;;12.30;99.90;;;;;;6218617;23;20047;-80
2023/01/07 00:31:13;;;;;;;2.30;0.75;;;12.20;99.90;;;;;;6218920;23;20091;-81
2023/01/07 00:33:48;;;;;;;1.38;0.80;;;12.20;99.90;;;;;;6218898;23;20008;-81
2023/01/07 00:36:19;;;;;;;3.80;1.20;;;12.20;99.90;;;;;;6218624;23;20008;-81
2023/01/07 00:38:58;;;;;;;2.05;0.70;;;12.20;99.90;;;;;;6218957;23;20016;-80
2023/01/07 00:41:27;;;;;;;1.80;0.77;;;12.20;99.90;;;;;;6218782;23;20389;-80
2023/01/07 00:44:01;;;;;;;3.20;0.80;;;12.20;99.90;;;;;;6218721;23;20384;-80
2023/01/07 00:46:28;;;;;;;1.25;0.70;;;12.20;99.90;;;;;;6217401;23;20001;-81
2023/01/07 00:49:05;;;;;;;2.63;1.08;;;12.20;99.90;;;;;;6218790;23;20011;-82
2023/01/07 00:51:36;;;;;;;1.67;0.90;;;12.10;99.90;;;;;;6218831;23;20004;-81
2023/01/07 00:54:30;;;;;;;3.45;0.90;;;12.10;99.90;;;;;;6218884;23;20341;-83
2023/01/07 00:57:10;;;;;;;1.73;0.77;;;12.10;99.90;;;;;;6211085;23;20461;-84
2023/01/07 00:59:35;;;;;;;2.10;0.70;;;12.10;99.90;;;;;;6217697;23;20008;-79
2023/01/07 01:02:01;;;;;;;1.77;0.70;;;12.10;99.90;;;;;;6219358;23;20442;-79
2023/01/07 01:04:27;;;;;;;2.70;0.82;;;12.10;99.90;;;;;;6219510;23;19992;-79
2023/01/07 01:06:52;;;;;;;1.85;0.68;;;12.10;99.90;;;;;;6219429;23;20423;-80
2023/01/07 01:09:19;;;;;;;3.53;0.80;;;12.00;99.90;;;;;;6219861;23;19997;-79
2023/01/07 01:11:45;;;;;;;1.42;0.65;;;12.00;99.90;;;;;;6218577;23;20095;-80
2023/01/07 01:14:11;;;;;;;1.30;0.70;;;12.00;99.90;;;;;;6219659;23;20005;-80
2023/01/07 01:16:36;;;;;;;1.85;0.60;;;12.00;99.90;;;;;;6219562;23;20000;-80
2023/01/07 01:20:16;;;;;;;;;;;;;;;;;;;;;
2023/01/07 01:40:02;;;;;;;1.83;0.70;;;11.90;99.90;;;;;;6262207;22;20028;-81
2023/01/07 01:42:51;;;;;;;;;;;;;;;;;;;;;
2023/01/07 01:45:17;;;;;;;1.88;0.73;;;11.80;99.90;;;;;;6282754;22;20028;-80
2023/01/07 01:47:51;;;;;;;0.98;0.80;;;11.80;99.90;;;;;;6282061;22;20462;-80
2023/01/07 01:50:31;;;;;;;3.25;0.73;;;11.80;99.90;;;;;;6282362;22;20000;-80
2023/01/07 01:53:05;;;;;;;1.65;0.80;;;11.80;99.90;;;;;;6282547;22;20421;-80
2023/01/07 01:55:42;;;;;;;3.05;0.90;;;11.80;99.90;;;;;;6282706;22;20441;-81
2023/01/07 01:58:19;;;;;;;1.77;0.95;;;11.90;99.90;;;;;;6280340;22;20000;-81
2023/01/07 02:00:45;;;;;;;2.50;0.70;;;11.90;99.90;;;;;;6282551;22;20030;-81
2023/01/07 02:03:18;;;;;;;2.55;0.88;;;11.90;99.90;;;;;;6282381;22;19996;-81
2023/01/07 02:05:45;;;;;;;2.08;0.85;;;11.90;99.90;;;;;;6282427;22;20310;-81
2023/01/07 02:08:11;;;;;;;3.38;1.10;;;11.90;99.90;;;;;;6282537;22;20023;-81
2023/01/07 02:10:37;;;;;;;1.38;0.70;;;11.90;99.90;;;;;;6282762;22;20148;-80
2023/01/07 02:13:28;;;;;;;2.13;1.00;;;11.90;99.90;;;;;;6255141;22;20421;-80
2023/01/07 02:16:05;;;;;;;2.35;0.75;;;11.90;99.90;;;;;;6255457;22;20068;-81
2023/01/07 02:18:52;;;;;;;2.00;0.80;;;11.90;99.90;;;;;;6282453;22;20071;-81
2023/01/07 02:21:36;;;;;;;2.47;0.73;;;11.90;99.90;;;;;;6255524;22;20004;-81
2023/01/07 02:24:31;;;;;;;1.95;0.93;;;12.00;99.90;;;;;;6282452;22;20412;-81
2023/01/07 02:27:27;;;;;;;1.70;0.90;;;12.00;99.90;;;;;;6255704;22;20000;-82
2023/01/07 02:30:29;;;;;;;1.58;0.80;;;11.90;99.90;;;;;;6253493;22;19999;-82
2023/01/07 02:32:57;;;;;;;1.10;0.70;;;11.90;99.90;;;;;;6282074;22;20021;-80
2023/01/07 02:35:37;;;;;;;2.47;1.05;;;11.90;99.90;;;;;;6255667;22;20026;-81
2023/01/07 02:38:26;;;;;;;1.67;1.00;;;11.90;99.90;;;;;;6282531;22;20078;-78
2023/01/07 02:41:49;;;;;;;2.92;1.15;;;11.80;99.90;;;;;;6277504;22;20011;-79
2023/01/07 02:44:30;;;;;;;2.13;0.85;;;11.80;99.90;;;;;;6214764;22;20086;-78
2023/01/07 02:47:22;;;;;;;2.65;0.90;;;11.80;99.90;;;;;;6281971;22;20000;-79
2023/01/07 02:49:48;;;;;;;3.47;1.10;;;11.80;99.90;;;;;;6235341;22;20498;-78
2023/01/07 02:52:19;;;;;;;2.83;1.13;;;11.70;99.90;;;;;;6282362;22;20118;-78
2023/01/07 02:54:51;;;;;;;1.95;1.20;;;11.70;99.90;;;;;;6280414;22;20054;-78
2023/01/07 02:57:41;;;;;;;1.48;0.93;;;11.80;99.90;;;;;;6280841;22;20010;-79
2023/01/07 03:00:34;;;;;;;2.05;1.13;;;11.70;99.90;;;;;;6282376;22;20076;-81
2023/01/07 03:03:27;;;;;;;3.47;1.30;;;11.70;99.90;;;;;;6280546;22;20005;-81
2023/01/07 03:05:56;;;;;;;1.40;1.00;;;11.70;99.90;;;;;;6282600;22;20014;-80
2023/01/07 03:08:41;;;;;;;1.95;1.08;;;11.80;99.90;;;;;;6282430;22;20368;-81
2023/01/07 03:11:15;;;;;;;2.40;1.05;;;11.80;99.90;;;;;;6280604;22;20014;-80
2023/01/07 03:14:07;;;;;;;3.30;1.40;;;11.80;99.90;;;;;;6282275;22;20010;-80
2023/01/07 03:16:38;;;;;;;2.80;1.27;;;11.70;99.90;;;;;;6253452;22;20405;-80
2023/01/07 03:19:38;;;;;;;1.40;0.93;;;11.70;99.90;;;;;;6280555;22;20004;-80
2023/01/07 03:22:08;;;;;;;1.42;1.10;;;11.70;99.90;;;;;;6279274;22;20028;-80
2023/01/07 03:24:34;;;;;;;3.00;1.52;;;11.70;99.90;;;;;;6280171;22;20004;-80
2023/01/07 03:27:21;;;;;;;2.40;1.33;;;11.70;99.90;;;;;;6280520;22;20043;-80
2023/01/07 03:29:54;;;;;;;3.30;1.35;;;11.60;99.90;;;;;;6280186;22;20007;-81
2023/01/07 03:36:17;;;;;;;1.77;1.05;;;11.70;99.90;;;;;;6135815;23;20009;-80
2023/01/07 03:38:44;;;;;;;2.88;1.30;;;11.70;99.90;;;;;;6279394;22;20036;-81
2023/01/07 03:48:30;;;;;;;2.15;0.93;;;11.60;99.90;;;;;;6243517;22;20098;-82
2023/01/07 03:58:43;;;;;;;2.78;1.10;;;11.60;99.90;;;;;;5875284;24;20047;-82
2023/01/07 04:01:09;;;;;;;2.80;1.33;;;11.60;99.90;;;;;;5932193;24;20016;-80
2023/01/07 04:03:35;;;;;;;2.70;1.00;;;11.60;99.90;;;;;;6012284;23;20006;-81
2023/01/07 04:16:06;;;;;;;1.10;0.70;;;11.60;99.90;;;;;;6098929;23;20035;-79
2023/01/07 04:18:32;;;;;;;3.78;1.30;;;11.60;99.90;;;;;;6192221;22;20003;-79
2023/01/07 04:20:57;;;;;;;1.73;1.17;;;11.60;99.90;;;;;;6281501;22;20003;-79
2023/01/07 04:23:23;;;;;;;1.60;0.88;;;11.60;99.90;;;;;;6281646;22;20389;-79
2023/01/07 04:25:49;;;;;;;2.13;1.05;;;11.60;99.90;;;;;;6281562;22;20000;-82
2023/01/07 04:28:14;;;;;;;2.20;1.00;;;11.50;99.90;;;;;;6281162;22;20332;-81
2023/01/07 04:30:40;;;;;;;1.73;1.00;;;11.50;99.90;;;;;;6281189;22;20006;-81
2023/01/07 04:33:09;;;;;;;2.47;0.85;;;11.40;99.90;;;;;;6253973;22;20015;-81
2023/01/07 04:35:35;;;;;;;2.05;1.05;;;11.40;99.90;;;;;;6281388;22;19999;-81
2023/01/07 04:38:01;;;;;;;2.33;1.20;;;11.40;99.90;;;;;;6280681;22;20019;-82
2023/01/07 04:40:26;;;;;;;1.50;0.95;;;11.40;99.90;;;;;;6281103;22;20012;-81
2023/01/07 04:42:52;;;;;;;1.92;1.00;;;11.30;99.90;;;;;;6254334;22;20429;-81
2023/01/07 04:45:18;;;;;;;1.55;1.00;;;11.30;99.90;;;;;;6253631;22;20008;-81
2023/01/07 04:47:44;;;;;;;1.90;0.90;;;11.30;99.90;;;;;;6281294;22;19996;-82
2023/01/07 04:50:09;;;;;;;3.67;1.30;;;11.30;99.90;;;;;;6254029;22;20007;-82
2023/01/07 04:52:35;;;;;;;2.88;1.13;;;11.30;99.90;;;;;;6281372;22;20527;-81
2023/01/07 04:55:01;;;;;;;2.40;1.00;;;11.30;99.90;;;;;;6254425;22;20008;-81
2023/01/07 04:57:27;;;;;;;4.22;1.15;;;11.30;99.90;;;;;;6254133;22;20459;-81
2023/01/07 04:59:52;;;;;;;2.55;0.90;;;11.30;99.90;;;;;;6281277;22;20079;-81
2023/01/07 05:02:18;;;;;;;3.22;1.20;;;11.30;99.90;;;;;;6280791;22;20034;-81
2023/01/07 05:04:47;;;;;;;2.83;0.95;;;11.30;99.90;;;;;;6281139;22;20075;-81
2023/01/07 05:08:06;;;;;;;;;;;;;;;;;;;;;
2023/01/07 05:17:28;;;;;;;2.45;0.82;;;11.30;99.90;;;;;;6235326;22;20002;-80
2023/01/07 05:19:54;;;;;;;2.25;0.93;;;11.30;99.90;;;;;;6282560;22;20000;-80
2023/01/07 05:22:20;;;;;;;2.75;0.77;;;11.30;99.90;;;;;;6255840;22;20041;-80
2023/01/07 05:24:45;;;;;;;1.60;0.77;;;11.30;99.90;;;;;;6283500;22;20073;-80
2023/01/07 05:27:11;;;;;;;1.52;0.85;;;11.30;99.90;;;;;;6256067;22;20133;-80
2023/01/07 05:29:39;;;;;;;3.20;0.93;;;11.30;99.90;;;;;;6256093;22;20057;-80
2023/01/07 05:32:07;;;;;;;2.45;1.02;;;11.40;99.90;;;;;;6283109;22;20007;-80
2023/01/07 05:34:33;;;;;;;2.38;0.85;;;11.30;99.90;;;;;;6283439;22;20004;-81
2023/01/07 05:37:04;;;;;;;3.17;1.00;;;11.40;99.90;;;;;;6256198;22;20169;-81
2023/01/07 05:39:56;;;;;;;2.92;1.10;;;11.30;99.90;;;;;;6259707;22;20015;-82
2023/01/07 05:43:01;;;;;;;;;;;;;;;;;;;;;
2023/01/07 05:49:41;;;;;;;;;;;;;;;;;;;;;
2023/01/07 05:52:07;;;;;;;3.60;1.00;;;11.30;99.90;;;;;;6227616;22;20087;-81
2023/01/07 05:54:34;;;;;;;1.75;0.77;;;11.30;99.90;;;;;;6280332;22;20016;-81
2023/01/07 05:57:00;;;;;;;4.15;1.02;;;11.30;99.90;;;;;;6254627;22;20000;-81
2023/01/07 05:59:26;;;;;;;2.08;1.08;;;11.30;99.90;;;;;;6254652;22;20004;-81
2023/01/07 06:01:51;;;;;;;2.70;1.00;;;11.30;99.90;;;;;;6279936;22;20377;-80
2023/01/07 06:04:17;;;;;;;3.47;1.23;;;11.30;99.90;;;;;;6254345;22;20460;-81
2023/01/07 06:06:46;;;;;;;1.98;0.93;;;11.30;99.90;;;;;;6254377;22;20026;-81
2023/01/07 06:09:11;;;;;;;3.90;1.38;;;11.30;99.90;;;;;;6280452;22;20336;-81
2023/01/07 06:11:37;;;;;;;3.75;1.23;;;11.30;99.90;;;;;;6254513;22;20015;-81
2023/01/07 06:14:03;;;;;;;3.05;1.30;;;11.30;99.90;;;;;;6280066;22;20026;-81
2023/01/07 06:16:29;;;;;;;3.10;1.20;;;11.30;99.90;;;;;;6279394;22;20066;-81
2023/01/07 06:18:54;;;;;;;3.22;1.27;;;11.30;99.90;;;;;;6280234;22;20031;-81
2023/01/07 06:21:20;;;;;;;3.72;1.35;;;11.30;99.90;;;;;;6282355;22;20082;-80
2023/01/07 06:23:46;;;;;;;2.83;1.30;;;11.30;99.90;;;;;;6281128;22;20006;-79
2023/01/07 06:26:11;;;;;;;3.47;1.50;;;11.30;99.90;;;;;;6282623;22;20416;-80
2023/01/07 06:28:37;;;;;;;3.47;1.40;;;11.30;99.90;;;;;;6282618;22;20000;-80
2023/01/07 06:31:03;;;;;;;2.17;1.20;;;11.30;99.90;;;;;;6280544;22;20008;-80
2023/01/07 06:33:36;;;;;;;1.95;1.08;;;11.30;99.90;;;;;;6282260;22;20328;-84
2023/01/07 06:36:06;;;;;;;4.75;1.30;;;11.30;99.90;;;;;;6280958;22;20004;-84
2023/01/07 06:38:33;;;;;;;1.73;1.20;;;11.30;99.90;;;;;;6281234;22;20014;-84
2023/01/07 06:41:01;;;;;;;3.28;1.48;;;11.20;99.90;;;;;;6278986;22;20015;-82
2023/01/07 06:43:27;;;;;;;1.80;1.13;;;11.20;99.90;;;;;;6282267;22;20083;-80
2023/01/07 06:45:52;;;;;;;4.25;1.95;;;11.20;99.90;;;;;;6281740;22;20007;-80
2023/01/07 06:48:18;;;;;;;1.85;1.35;;;11.10;99.90;;;;;;6282175;22;20022;-81
2023/01/07 06:50:44;;;;;;;3.63;1.58;;;11.10;99.90;;;;;;6280710;22;20022;-81
2023/01/07 06:53:10;;;;;;;4.57;1.50;;;11.10;99.90;;;;;;6280770;22;20010;-81
2023/01/07 06:55:36;;;;;;;3.50;1.63;;;11.00;99.90;;;;;;6282175;22;20006;-82
2023/01/07 06:58:01;;;;;;;3.42;1.70;;;11.00;99.90;;;;;;6282433;22;19996;-81
2023/01/07 07:00:27;;;;;;;3.92;1.75;;;11.00;99.90;;;;;;6281970;22;20031;-81
2023/01/07 07:02:53;;;;;;;4.20;1.75;;;11.00;99.90;;;;;;6280417;22;20008;-81
2023/01/07 07:05:18;;;;;;;3.70;1.85;;;11.00;99.90;;;;;;6282042;22;20420;-81
2023/01/07 07:07:44;;;;;;;2.20;1.50;;;10.90;99.90;;;;;;6282235;22;19996;-80
2023/01/07 07:10:10;;;;;;;3.60;1.90;;;10.70;99.90;;;;;;6280543;22;20007;-80
2023/01/07 07:12:37;;;;;;;3.63;1.60;;;10.90;99.90;;;;;;6282240;22;20003;-81
2023/01/07 07:15:05;;;;;;;2.55;1.60;;;10.90;99.90;;;;;;6282605;22;20602;-81
2023/01/07 07:17:31;;;;;;;3.25;1.70;;;11.00;99.90;;;;;;6281834;22;19999;-81
2023/01/07 07:19:57;;;;;;;2.30;1.55;;;10.90;99.90;;;;;;6280253;22;20067;-81
2023/01/07 07:22:22;;;;;;;2.45;1.50;;;10.90;99.90;;;;;;6280244;22;20008;-80
2023/01/07 07:24:48;;;;;;;4.95;1.77;;;11.00;99.90;;;;;;6281707;22;20379;-80
2023/01/07 07:27:16;;;;;;;3.05;1.70;;;10.90;99.90;;;;;;6282042;22;20006;-80
2023/01/07 07:29:42;;;;;;;2.75;1.60;;;10.90;99.90;;;;;;6280459;22;20057;-80
2023/01/07 07:32:08;;;;;;;2.35;1.60;;;;;;;;;;6280180;22;20007;-80
2023/01/07 07:34:34;;;;;;;3.58;2.28;;;;;;;;;;6280560;22;19999;-80
2023/01/07 07:37:01;;;;;;;2.58;1.70;;;;;;;;;;6280435;22;20082;-80
2023/01/07 07:39:27;;;;;;;3.35;1.83;;;;;;;;;;6281906;22;20332;-81
2023/01/07 07:41:53;;;;;;;3.75;1.70;;;;;;;;;;6281862;22;20004;-81
2023/01/07 07:44:21;;;;;;;3.60;2.17;;;;;;;;;;6281875;22;19996;-82
2023/01/07 07:46:47;;;;;;;3.30;1.70;;;;;;;;;;6254276;22;20077;-83
2023/01/07 07:49:13;;;;;;;3.45;1.58;;;;;;;;;;6281241;22;19996;-82
2023/01/07 07:51:40;;;;;;;3.38;1.70;;;;;;;;;;6281824;22;20083;-82
2023/01/07 07:54:06;;;;;;;3.67;1.70;;;;;;;;;;6254533;22;20429;-83
2023/01/07 07:56:32;;;;;;;3.78;1.75;;;;;;;;;;6281857;22;20004;-81
2023/01/07 07:58:58;;;;;;;4.45;1.80;;;;;;;;;;6281816;22;20000;-80
2023/01/07 08:01:24;;;;;;;3.75;1.50;;;;;;;;;;6253887;22;20007;-80
2023/01/07 08:03:50;;;;;;;2.50;1.55;;;;;;;;;;6281697;22;20329;-81
2023/01/07 08:06:16;;;;;;;2.80;1.65;;;;;;;;;;6254404;22;20053;-81
2023/01/07 08:08:42;;;;;;;3.40;1.90;;;;;;;;;;6281883;22;20027;-81
2023/01/07 08:11:08;;;;;;;2.67;1.77;;;;;;;;;;6254265;22;20416;-81
2023/01/07 08:13:34;;;;;;;3.15;2.03;;;;;;;;;;6281450;22;20006;-81
2023/01/07 08:16:00;;;;;;;4.55;2.00;;;;;;;;;;6281315;22;20000;-81
2023/01/07 08:18:26;;;;;;;2.95;1.80;;;;;;;;;;6281350;22;20325;-81
2023/01/07 08:20:54;;;;;;;3.22;1.80;;;;;;;;;;6281468;22;20000;-80
2023/01/07 08:23:20;;;;;;;3.20;1.83;;;;;;;;;;6281246;22;20000;-81
2023/01/07 08:25:46;;;;;;;4.53;1.92;;;;;;;;;;6252119;22;20054;-81
2023/01/07 08:28:12;;;;;;;2.90;1.80;;;;;;;;;;6253754;22;20000;-80
2023/01/07 08:30:48;;;;;;;;;;;;;;;;;;;;;
2023/01/07 08:33:36;;;;;;;3.35;1.80;;;;;;;;;;6281311;22;20088;-84
2023/01/07 08:36:05;;;;;;;4.75;2.03;;;;;;;;;;6253298;22;20000;-80
2023/01/07 08:38:31;;;;;;;3.33;1.90;;;;;;;;;;6281433;22;19996;-80
2023/01/07 08:40:58;;;;;;;4.10;1.90;;;;;;;;;;6273749;22;20069;-80
2023/01/07 08:43:24;;;;;;;2.85;1.77;;;;;;;;;;6279533;22;20000;-80
2023/01/07 08:45:51;;;;;;;5.78;2.03;;;;;;;;;;6278829;22;20052;-82
2023/01/07 08:48:17;;;;;;;4.00;1.95;;;;;;;;;;6279228;22;20004;-82
2023/01/07 08:50:43;;;;;;;2.83;1.80;;;;;;;;;;6281601;22;20002;-82
2023/01/07 08:53:09;;;;;;;4.63;2.00;;;;;;;;;;6277844;22;20036;-82
2023/01/07 08:59:01;;;;;;;2.60;1.60;;;;;;;;;;6215722;23;20009;-82
2023/01/07 09:01:28;;;;;;;5.25;1.88;;;;;;;;;;6216444;23;20461;-80
2023/01/07 09:03:54;;;;;;;4.03;2.17;;;;;;;;;;6263354;22;20000;-80
2023/01/07 09:06:21;;;;;;;2.92;1.65;;;;;;;;;;6280708;22;20007;-81
2023/01/07 09:24:40;;;;;;;2.85;1.60;;;;;;;;;;6271057;22;20026;-81
2023/01/07 09:50:54;;;;;;;2.72;1.25;;;;;;;;;;6187172;23;20462;-82
2023/01/07 10:05:31;;;;;;;2.20;1.20;;;;;;;;;;6282425;22;20050;-82
2023/01/07 10:20:49;;;;;;;;;;;;;;;;;;;;;
2023/01/07 10:38:02;;;;;;;3.72;1.23;;;;;;;;;;6339817;22;20058;-84
2023/01/07 10:40:55;;;;;;;;;;;;;;;;;;;;;
2023/01/07 10:43:22;;;;;;;;;;;;;;;;;;6333887;22;20034;-82
2023/01/07 10:52:41;;;;;;;3.55;1.35;;;;;;;;;;6218701;23;20015;-83
2023/01/07 10:55:16;;;;;;;3.72;1.20;;;;;;;;;;6193352;23;20035;-76
2023/01/07 10:57:43;;;;;;;4.28;1.25;;;;;;;;;;6218698;23;20060;-75
2023/01/07 11:00:13;;;;;;;2.70;1.02;;;;;;;;;;6252028;22;20007;-76
2023/01/07 11:02:42;;;;;;;4.65;1.10;;;;;;;;;;6309958;22;20102;-77
2023/01/07 11:05:10;;;;;;;4.28;1.25;;;;;;;;;;6314265;22;19999;-76
2023/01/07 11:07:45;;;;;;;4.18;1.35;;;;;;;;;;6343780;22;19995;-74
2023/01/07 11:10:16;;;;;;;7.32;1.60;;;;;;;;;;6344311;22;20001;-68
2023/01/07 11:13:11;;;;;;;8.25;1.75;;;;;;;;;;6310597;22;20072;-67
2023/01/07 11:15:42;;;;;;;3.47;1.13;;;;;;;;;;6310174;22;20081;-66
2023/01/07 11:18:13;;;;;;;4.05;1.52;;;;;;;;;;6344010;22;20002;-67
2023/01/07 11:20:42;;;;;;;4.95;1.40;;;;;;;;;;6311257;22;20007;-67
2023/01/07 11:23:19;;;;;;;5.47;1.70;;;;;;;;;;6341885;22;20004;-66
2023/01/07 11:25:45;;;;;;;4.00;1.48;;;;;;;;;;6344096;22;19999;-66
2023/01/07 11:28:19;;;;;;;4.10;1.48;;;;;;;;;;6315413;22;19995;-66
2023/01/07 11:30:54;;;;;;;4.90;1.40;;;;;;;;;;6343411;22;20439;-65
2023/01/07 11:33:24;;;;;;;5.10;1.50;;;;;;;;;;6343810;22;19999;-66
2023/01/07 11:35:54;;;;;;;5.57;1.58;;;;;;;;;;6343390;22;20050;-65
2023/01/07 11:38:31;;;;;;;4.22;1.30;;;;;;;;;;6342651;22;20060;-66
2023/01/07 11:40:58;;;;;;;3.10;1.15;;;;;;;;;;6342288;22;20358;-68
2023/01/07 11:43:25;;;;;;;5.28;1.38;;;;;;;;;;6342674;22;20042;-71
2023/01/07 11:45:56;;;;;;;4.78;1.70;;;;;;;;;;6342553;22;20002;-71
2023/01/07 11:48:22;;;;;;;4.72;1.42;;;;;;;;;;6309301;22;19999;-71
2023/01/07 11:50:54;;;;;;;5.03;1.50;;;;;;;;;;6336848;22;20033;-70
2023/01/07 11:53:28;;;;;;;4.45;1.67;;;;;;;;;;6342862;22;20002;-69
2023/01/07 11:55:58;;;;;;;5.70;1.38;;;;;;;;;;6342844;22;20027;-70
2023/01/07 11:58:26;;;;;;;4.03;1.50;;;;;;;;;;6309949;22;19999;-67
2023/01/07 12:01:08;;;;;;;6.30;1.60;;;;;;;;;;6338216;22;20002;-65
2023/01/07 12:03:34;;;;;;;3.55;1.20;;;;;;;;;;6343597;22;20077;-67
2023/01/07 12:06:05;;;;;;;5.00;1.42;;;;;;;;;;6312986;22;20082;-67
2023/01/07 12:08:31;;;;;;;6.47;1.30;;;;;;;;;;6343826;22;19994;-67
2023/01/07 12:10:58;;;;;;;5.47;1.80;;;;;;;;;;6343939;22;20089;-67
2023/01/07 12:13:26;;;;;;;6.18;1.70;;;;;;;;;;6310480;22;19999;-67
2023/01/07 12:15:56;;;;;;;4.30;1.80;;;;;;;;;;6338139;22;20006;-70
2023/01/07 12:18:34;;;;;;;6.05;1.65;;;;;;;;;;6343386;22;19999;-70
2023/01/07 12:21:10;;;;;;;3.05;1.42;;;;;;;;;;6343486;22;20029;-68
2023/01/07 12:23:36;;;;;;;4.00;1.48;;;;;;;;;;6343894;22;20033;-70
2023/01/07 12:26:22;;;;;;;6.68;1.35;;;;;;;;;;6343178;22;19995;-69
2023/01/07 12:28:57;;;;;;;5.47;1.52;;;12.80;99.90;;;;;;6343744;22;20057;-69
2023/01/07 12:32:02;;;;;;;5.20;1.55;;;12.90;99.90;;;;;;6310360;22;20007;-74
2023/01/07 12:34:53;;;;;;;3.38;1.10;;;12.70;99.90;;;;;;6310782;22;20004;-73
2023/01/07 12:37:39;;;;;;;4.68;1.45;;;12.60;99.90;;;;;;6331451;22;20014;-72
2023/01/07 12:40:15;;;;;;;4.43;1.20;;;12.60;99.90;;;;;;6342995;22;20006;-73
2023/01/07 12:42:49;;;;;;;4.13;1.10;;;12.50;99.90;;;;;;6310520;22;20003;-74
2023/01/07 12:45:48;;;;;;;5.97;1.50;;;12.50;99.90;;;;;;6329983;22;20029;-74
2023/01/07 12:48:24;;;;;;;2.40;0.93;;;12.50;99.90;;;;;;6343203;22;19995;-74
2023/01/07 12:50:54;;;;;;;3.78;1.05;;;12.50;99.90;;;;;;6309853;22;20343;-73
2023/01/07 12:53:24;;;;;;;2.80;0.90;;;12.50;99.90;;;;;;6303146;22;20081;-68
2023/01/07 12:56:24;;;;;;;2.53;0.98;;;12.50;99.90;;;;;;6314943;22;20026;-67
2023/01/07 12:59:36;;;;;;;2.17;0.93;;;12.50;99.90;;;;;;6334956;22;20005;-70
2023/01/07 13:02:23;;;;;;;2.70;0.90;;;12.50;99.90;;;;;;6325854;22;20002;-69
2023/01/07 13:05:03;;;;;;;2.60;0.93;;;12.50;99.90;;;;;;6343465;22;20022;-70
2023/01/07 13:07:41;;;;;;;2.67;0.75;;;12.50;99.90;;;;;;6343231;22;20018;-70
2023/01/07 13:10:24;;;;;;;1.90;0.57;;;12.50;99.90;;;;;;6343483;22;20420;-70
2023/01/07 13:12:55;;;;;;;3.75;1.45;;;12.50;99.90;;;;;;6343636;22;20052;-69
2023/01/07 13:15:27;;;;;;;5.53;0.95;;;12.50;99.90;;;;;;6343210;22;20331;-69
2023/01/07 13:17:58;;;;;;;3.25;1.02;;;12.50;99.90;;;;;;6343237;22;19999;-69
2023/01/07 13:20:40;;;;;;;6.32;1.35;;;12.50;99.90;;;;;;6343055;22;20431;-69
2023/01/07 13:23:10;;;;;;;4.85;1.58;;;12.50;99.90;;;;;;6313331;22;20505;-70
2023/01/07 13:26:00;;;;;;;4.05;1.20;;;12.50;99.90;;;;;;6343013;22;20721;-70
2023/01/07 13:28:53;;;;;;;2.55;0.98;;;12.60;99.90;;;;;;6312481;22;19999;-70
2023/01/07 13:31:42;;;;;;;2.45;0.90;;;12.60;99.90;;;;;;6310150;22;20031;-69
2023/01/07 13:34:36;;;;;;;2.25;1.10;;;12.60;99.90;;;;;;6314539;22;20393;-71
2023/01/07 13:37:44;;;;;;;3.25;1.10;;;12.70;99.90;;;;;;6313472;22;20033;-71
2023/01/07 13:40:19;;;;;;;1.98;0.73;;;12.90;99.90;;;;;;6274629;22;20462;-70
2023/01/07 13:42:50;;;;;;;4.32;1.45;;;13.00;99.90;;;;;;6344454;22;20013;-70
2023/01/07 13:45:26;;;;;;;4.15;1.10;;;13.10;99.90;;;;;;6343940;22;19998;-70
2023/01/07 13:47:55;;;;;;;2.53;0.98;;;13.20;99.90;;;;;;6344582;22;20006;-70
2023/01/07 13:50:23;;;;;;;3.38;1.13;;;13.20;99.90;;;;;;6344822;22;19995;-70
2023/01/07 13:52:59;;;;;;;3.35;1.30;;;13.20;99.90;;;;;;6344976;22;20305;-70
2023/01/07 13:55:34;;;;;;;2.67;0.93;;;13.20;99.90;;;;;;6345040;22;20003;-70
2023/01/07 13:58:01;;;;;;;3.38;1.00;;;13.20;99.90;;;;;;6314220;22;20015;-70
2023/01/07 14:00:46;;;;;;;4.00;1.27;;;13.20;99.90;;;;;;6344792;22;20007;-70
2023/01/07 14:03:32;;;;;;;4.53;1.17;;;13.20;99.90;;;;;;6316882;22;20458;-70
2023/01/07 14:06:23;;;;;;;2.80;0.90;;;13.20;99.90;;;;;;6345081;22;19999;-70
2023/01/07 14:08:55;;;;;;;2.95;1.13;;;13.20;99.90;;;;;;6345323;22;19995;-70
2023/01/07 14:11:29;;;;;;;3.30;0.98;;;13.20;99.90;;;;;;6344754;22;20077;-70
2023/01/07 14:14:40;;;;;;;2.22;0.90;;;13.30;99.90;;;;;;6313280;22;20436;-70
2023/01/07 14:17:26;;;;;;;3.35;1.20;;;13.30;99.90;;;;;;6256802;22;20057;-70
2023/01/07 14:20:07;;;;;;;5.68;1.10;;;13.30;99.90;;;;;;6312416;22;20007;-70
2023/01/07 14:23:27;;;;;;;5.60;0.95;;;13.30;99.90;;;;;;6312103;22;20003;-70
2023/01/07 14:26:16;;;;;;;3.45;0.95;;;13.20;99.90;;;;;;6189164;23;20482;-70
2023/01/07 14:28:44;;;;;;;4.50;1.10;;;13.20;99.90;;;;;;6331596;22;19999;-70
2023/01/07 14:31:26;;;;;;;2.08;0.73;;;13.10;99.90;;;;;;6344676;22;20351;-70
2023/01/07 14:33:59;;;;;;;3.75;0.98;;;13.10;99.90;;;;;;6345217;22;20445;-70
2023/01/07 14:37:10;;;;;;;4.05;0.70;;;13.00;99.90;;;;;;6345222;22;20006;-70
2023/01/07 14:39:43;;;;;;;4.40;1.10;;;13.00;99.90;;;;;;6311276;22;20022;-70
2023/01/07 14:42:18;;;;;;;4.10;1.08;;;12.90;99.90;;;;;;6343483;22;20044;-70
2023/01/07 14:44:48;;;;;;;1.52;0.50;;;12.80;99.90;;;;;;6311674;22;19999;-70
2023/01/07 14:47:39;;;;;;;2.85;0.75;;;12.80;99.90;;;;;;6316607;22;20007;-70
2023/01/07 14:50:21;;;;;;;3.53;0.90;;;12.80;99.90;;;;;;6344592;22;20057;-70
2023/01/07 14:53:31;;;;;;;3.40;1.33;;;12.80;99.90;;;;;;6345537;22;20006;-70
2023/01/07 14:56:12;;;;;;;5.90;1.45;;;12.90;99.90;;;;;;6344811;22;20074;-70
2023/01/07 14:59:12;;;;;;;7.30;2.38;;;12.90;99.90;;;;;;6311703;22;20054;-70
2023/01/07 15:01:43;;;;;;;5.07;1.50;;;12.90;99.90;;;;;;6311205;22;20034;-70
2023/01/07 15:04:31;;;;;;;6.70;1.60;;;12.90;99.90;;;;;;6343624;22;20470;-70
2023/01/07 15:06:58;;;;;;;5.07;1.30;;;12.90;99.90;;;;;;6313041;22;20004;-70
2023/01/07 15:18:10;;;;;;;5.97;1.20;;;12.80;99.90;;;;;;6344377;22;20072;-70
2023/01/07 15:20:48;;;;;;;4.63;1.25;;;12.80;99.90;;;;;;6344563;22;20034;-70
2023/01/07 15:23:48;;;;;;;2.95;1.08;;;12.80;99.90;;;;;;6316367;22;20014;-70
2023/01/07 15:26:22;;;;;;;2.83;0.98;;;12.80;99.90;;;;;;6344654;22;19999;-70
2023/01/07 15:29:03;;;;;;;3.47;1.20;;;12.70;99.90;;;;;;6344516;22;20511;-70
2023/01/07 15:31:48;;;;;;;4.45;1.50;;;12.70;99.90;;;;;;6344152;22;20003;-70
2023/01/07 15:34:16;;;;;;;5.90;1.10;;;12.70;99.90;;;;;;6344756;22;20051;-70
2023/01/07 15:36:45;;;;;;;6.63;1.40;;;12.70;99.90;;;;;;6344222;22;20026;-70
2023/01/07 15:39:27;;;;;;;4.57;1.13;;;12.70;99.90;;;;;;6344324;22;20026;-70
2023/01/07 15:41:54;;;;;;;3.83;1.40;;;12.70;99.90;;;;;;6344347;22;19998;-70
2023/01/07 15:44:25;;;;;;;7.43;1.50;;;12.70;99.90;;;;;;6344339;22;19999;-70
2023/01/07 15:46:51;;;;;;;5.28;1.10;;;12.70;99.90;;;;;;6343861;22;20026;-70
2023/01/07 15:49:22;;;;;;;9.52;1.60;;;12.70;99.90;;;;;;6344164;22;20021;-70
2023/01/07 15:51:53;;;;;;;5.57;1.42;;;12.70;99.90;;;;;;6311355;22;20011;-70
2023/01/07 15:54:27;;;;;;;9.32;1.55;;;12.70;99.90;;;;;;6331576;22;19998;-70
2023/01/07 15:57:01;;;;;;;11.30;2.13;;;12.70;99.90;;;;;;6311160;22;20014;-70
2023/01/07 15:59:30;;;;;;;8.95;2.00;;;12.70;99.90;;;;;;6342990;22;20541;-70
2023/01/07 16:02:04;;;;;;;6.75;1.85;;;12.70;99.90;;;;;;6342349;22;20064;-70
2023/01/07 16:04:35;;;;;;;8.50;2.40;;;12.70;99.90;;;;;;6310612;22;20064;-70
2023/01/07 16:07:01;;;;;;;12.07;2.10;;;12.70;99.90;;;;;;6340440;22;20105;-70
2023/01/07 16:09:28;;;;;;;5.97;1.63;;;12.70;99.90;;;;;;6343253;22;19998;-70
2023/01/07 16:11:53;;;;;;;9.88;2.28;;;12.60;99.90;;;;;;6344010;22;19999;-70
2023/01/07 16:14:24;;;;;;;6.60;1.70;;;12.60;99.90;;;;;;6344095;22;20466;-70
2023/01/07 16:17:10;;;;;;;10.30;2.25;;;12.60;99.90;;;;;;6343559;22;20003;-70
2023/01/07 16:19:36;;;;;;;4.93;1.65;;;12.50;99.90;;;;;;6343649;22;20321;-70
2023/01/07 16:22:02;;;;;;;10.07;1.90;;;12.50;99.90;;;;;;6344021;22;20010;-70
2023/01/07 16:24:28;;;;;;;7.60;1.92;;;12.50;99.90;;;;;;6344026;22;20052;-70
2023/01/07 16:26:59;;;;;;;6.05;1.52;;;12.50;99.90;;;;;;6311487;22;20003;-70
2023/01/07 16:29:27;;;;;;;6.93;1.70;;;12.40;99.90;;;;;;6343653;22;19995;-70
2023/01/07 16:31:54;;;;;;;7.63;1.58;;;12.40;99.90;;;;;;6311015;22;20003;-70